Nicoya, Costa Rica

10:55 PM CST on August 31, 2016 (GMT -0600)
Colorado, Abangares, Guanacaste | | Change Station

Elev 59 ft 10.18 °N, 85.11 °W | Updated 17 seconds ago

Rain
Rain
76.2 °F
Feels Like 76 °F
N
0.0
Wind Variable Wind from SSE
Gusts 0.0 mph

Today
High -- | Low -- °F
--% Chance of Precip.
Yesterday
High -- | Low -- °F
Precip. -- in
Pressure 29.92 in
Visibility 5.0 miles
Clouds Few 800 ft
Mostly Cloudy 4000 ft
Heat Index 76 °F
Dew Point 75 °F
Humidity 96%
Rainfall 0.43 in
Snow Depth Not available.
5:32 AM 5:51 PM
Waning Crescent, 0% visible
METAR MRLB 010400Z 05003KT 8000 RA FEW008 BKN040 24/23 A2992 NOSIG
Pressure 29.92 in
Visibility 5.0 miles
Clouds Few 800 ft
Mostly Cloudy 4000 ft
Heat Index 76 °F
Dew Point 75 °F
Humidity 96%
Rainfall 0.43 in
Snow Depth Not available.
5:32 AM 5:51 PM
Waning Crescent, 0% visible
METAR MRLB 010400Z 05003KT 8000 RA FEW008 BKN040 24/23 A2992 NOSIG

10-Day Weather Forecast

No radar image for this location.
×

Almanac

Astronomy

Aug. 31, 2016 Rise Set
Actual Time
Civil Twilight
Nautical Twilight
Astronomical Twilight
Moon
Length of Visible Light
Length of Day
Tomorrow will be .
, % of the Moon is Illuminated

Today's Extremes

Country Highs Country Lows

Community

WunderPhotos

Upload Photos

1,936,313 photos uploaded!

WunderBlog® & News

Nearby

Air Quality

  Air Quality AQ Index Pollutant
Not available.

Snow Depth

Station Depth Elevation

Earthquake Activity

City Distance Mag. Time & Date
Minimum magnitude displayed is 2.5.

Coastal Water Temperatures

Place Temperature

Stations

Nearby Weather Stations

Station Location Temp. Windchill Dew Point Humidity Wind Precip. Elev Updated Type